sensor_id;sensor_type;location;lat;lon;timestamp;P1;durP1;ratioP1;P2;durP2;ratioP2
25511;SDS011;13414;44.534;18.700;2023-04-25T00:01:23;38.72;;;26.50;;
25511;SDS011;13414;44.534;18.700;2023-04-25T00:03:50;33.95;;;25.92;;
25511;SDS011;13414;44.534;18.700;2023-04-25T00:06:18;38.42;;;26.42;;
25511;SDS011;13414;44.534;18.700;2023-04-25T00:08:45;37.17;;;27.05;;
25511;SDS011;13414;44.534;18.700;2023-04-25T00:11:14;39.17;;;28.05;;
25511;SDS011;13414;44.534;18.700;2023-04-25T00:13:41;39.33;;;28.80;;
25511;SDS011;13414;44.534;18.700;2023-04-25T00:16:09;39.60;;;28.90;;
25511;SDS011;13414;44.534;18.700;2023-04-25T00:18:38;40.67;;;28.60;;
25511;SDS011;13414;44.534;18.700;2023-04-25T00:21:06;33.10;;;23.92;;
25511;SDS011;13414;44.534;18.700;2023-04-25T00:23:33;33.28;;;23.08;;
25511;SDS011;13414;44.534;18.700;2023-04-25T00:26:02;30.25;;;21.65;;
25511;SDS011;13414;44.534;18.700;2023-04-25T00:28:31;24.23;;;18.10;;
25511;SDS011;13414;44.534;18.700;2023-04-25T00:30:58;21.35;;;15.52;;
25511;SDS011;13414;44.534;18.700;2023-04-25T00:33:26;19.13;;;13.40;;
25511;SDS011;13414;44.534;18.700;2023-04-25T00:35:53;21.38;;;13.38;;
25511;SDS011;13414;44.534;18.700;2023-04-25T00:38:21;17.42;;;11.82;;
25511;SDS011;13414;44.534;18.700;2023-04-25T00:40:49;18.40;;;12.38;;
25511;SDS011;13414;44.534;18.700;2023-04-25T00:43:16;17.23;;;10.73;;
25511;SDS011;13414;44.534;18.700;2023-04-25T00:45:48;13.30;;;9.75;;
25511;SDS011;13414;44.534;18.700;2023-04-25T00:48:17;13.43;;;9.27;;
25511;SDS011;13414;44.534;18.700;2023-04-25T00:50:45;16.67;;;10.07;;
25511;SDS011;13414;44.534;18.700;2023-04-25T00:53:18;13.70;;;9.57;;
25511;SDS011;13414;44.534;18.700;2023-04-25T00:55:45;14.38;;;9.43;;
25511;SDS011;13414;44.534;18.700;2023-04-25T00:58:13;11.75;;;8.32;;
25511;SDS011;13414;44.534;18.700;2023-04-25T01:00:41;11.30;;;8.27;;
25511;SDS011;13414;44.534;18.700;2023-04-25T01:03:10;12.63;;;8.00;;
25511;SDS011;13414;44.534;18.700;2023-04-25T01:05:38;12.02;;;8.57;;
25511;SDS011;13414;44.534;18.700;2023-04-25T01:08:07;16.30;;;8.63;;
25511;SDS011;13414;44.534;18.700;2023-04-25T01:10:35;16.67;;;8.23;;
25511;SDS011;13414;44.534;18.700;2023-04-25T01:13:03;10.68;;;7.45;;
25511;SDS011;13414;44.534;18.700;2023-04-25T01:15:31;10.43;;;7.15;;
25511;SDS011;13414;44.534;18.700;2023-04-25T01:17:58;13.32;;;7.65;;
25511;SDS011;13414;44.534;18.700;2023-04-25T01:20:28;7.97;;;6.40;;
25511;SDS011;13414;44.534;18.700;2023-04-25T01:22:59;9.20;;;6.50;;
25511;SDS011;13414;44.534;18.700;2023-04-25T01:25:28;9.30;;;6.38;;
25511;SDS011;13414;44.534;18.700;2023-04-25T01:27:56;8.00;;;5.88;;
25511;SDS011;13414;44.534;18.700;2023-04-25T01:30:26;6.38;;;4.70;;
25511;SDS011;13414;44.534;18.700;2023-04-25T01:32:55;9.20;;;4.40;;
25511;SDS011;13414;44.534;18.700;2023-04-25T01:35:23;7.72;;;4.80;;
25511;SDS011;13414;44.534;18.700;2023-04-25T01:37:53;10.18;;;4.70;;
25511;SDS011;13414;44.534;18.700;2023-04-25T01:40:22;6.68;;;4.45;;
25511;SDS011;13414;44.534;18.700;2023-04-25T01:42:50;8.10;;;4.78;;
25511;SDS011;13414;44.534;18.700;2023-04-25T01:45:19;9.45;;;5.60;;
25511;SDS011;13414;44.534;18.700;2023-04-25T01:47:47;14.20;;;6.88;;
25511;SDS011;13414;44.534;18.700;2023-04-25T01:50:16;17.92;;;9.82;;
25511;SDS011;13414;44.534;18.700;2023-04-25T01:52:45;20.52;;;12.00;;
25511;SDS011;13414;44.534;18.700;2023-04-25T01:55:13;27.05;;;13.90;;
25511;SDS011;13414;44.534;18.700;2023-04-25T01:58:05;27.38;;;12.88;;
25511;SDS011;13414;44.534;18.700;2023-04-25T02:01:06;38.63;;;18.23;;
25511;SDS011;13414;44.534;18.700;2023-04-25T02:03:42;34.13;;;18.20;;
25511;SDS011;13414;44.534;18.700;2023-04-25T02:06:19;28.88;;;15.68;;
25511;SDS011;13414;44.534;18.700;2023-04-25T02:08:48;20.85;;;9.38;;
25511;SDS011;13414;44.534;18.700;2023-04-25T02:11:16;16.80;;;9.00;;
25511;SDS011;13414;44.534;18.700;2023-04-25T02:14:08;14.57;;;7.13;;
25511;SDS011;13414;44.534;18.700;2023-04-25T02:16:51;18.23;;;6.82;;
25511;SDS011;13414;44.534;18.700;2023-04-25T02:19:19;10.23;;;4.20;;
25511;SDS011;13414;44.534;18.700;2023-04-25T02:21:46;9.18;;;5.25;;
25511;SDS011;13414;44.534;18.700;2023-04-25T02:24:14;10.30;;;5.50;;
25511;SDS011;13414;44.534;18.700;2023-04-25T02:26:41;7.60;;;4.30;;
25511;SDS011;13414;44.534;18.700;2023-04-25T02:29:10;6.53;;;3.88;;
25511;SDS011;13414;44.534;18.700;2023-04-25T02:31:38;5.32;;;2.85;;
25511;SDS011;13414;44.534;18.700;2023-04-25T02:34:05;6.55;;;3.25;;
25511;SDS011;13414;44.534;18.700;2023-04-25T02:36:35;6.10;;;3.30;;
25511;SDS011;13414;44.534;18.700;2023-04-25T02:39:03;4.10;;;2.50;;
25511;SDS011;13414;44.534;18.700;2023-04-25T02:41:30;4.05;;;2.35;;
25511;SDS011;13414;44.534;18.700;2023-04-25T02:43:58;2.45;;;1.25;;
25511;SDS011;13414;44.534;18.700;2023-04-25T02:46:27;2.35;;;1.30;;
25511;SDS011;13414;44.534;18.700;2023-04-25T02:48:54;2.70;;;1.63;;
25511;SDS011;13414;44.534;18.700;2023-04-25T02:51:21;2.50;;;1.30;;
25511;SDS011;13414;44.534;18.700;2023-04-25T02:53:49;1.77;;;0.90;;
25511;SDS011;13414;44.534;18.700;2023-04-25T02:56:16;1.48;;;0.80;;
25511;SDS011;13414;44.534;18.700;2023-04-25T02:58:44;3.10;;;1.25;;
25511;SDS011;13414;44.534;18.700;2023-04-25T03:01:11;3.33;;;1.30;;
25511;SDS011;13414;44.534;18.700;2023-04-25T03:03:40;3.42;;;1.20;;
25511;SDS011;13414;44.534;18.700;2023-04-25T03:06:08;3.90;;;1.88;;
25511;SDS011;13414;44.534;18.700;2023-04-25T03:08:36;3.00;;;1.70;;
25511;SDS011;13414;44.534;18.700;2023-04-25T03:11:03;3.70;;;1.80;;
25511;SDS011;13414;44.534;18.700;2023-04-25T03:13:31;5.97;;;3.03;;
25511;SDS011;13414;44.534;18.700;2023-04-25T03:15:58;5.72;;;4.00;;
25511;SDS011;13414;44.534;18.700;2023-04-25T03:18:26;5.22;;;3.40;;
25511;SDS011;13414;44.534;18.700;2023-04-25T03:20:55;3.78;;;1.80;;
25511;SDS011;13414;44.534;18.700;2023-04-25T03:23:23;2.95;;;1.90;;
25511;SDS011;13414;44.534;18.700;2023-04-25T03:25:51;3.08;;;1.92;;
25511;SDS011;13414;44.534;18.700;2023-04-25T03:28:18;5.50;;;2.50;;
25511;SDS011;13414;44.534;18.700;2023-04-25T03:30:46;3.65;;;2.10;;
25511;SDS011;13414;44.534;18.700;2023-04-25T03:33:14;4.60;;;2.35;;
25511;SDS011;13414;44.534;18.700;2023-04-25T03:35:41;4.35;;;2.40;;
25511;SDS011;13414;44.534;18.700;2023-04-25T03:38:11;4.70;;;2.45;;
25511;SDS011;13414;44.534;18.700;2023-04-25T03:40:39;4.15;;;2.17;;
25511;SDS011;13414;44.534;18.700;2023-04-25T03:43:23;3.97;;;2.40;;
25511;SDS011;13414;44.534;18.700;2023-04-25T03:45:57;4.57;;;2.60;;
25511;SDS011;13414;44.534;18.700;2023-04-25T03:48:25;4.45;;;2.90;;
25511;SDS011;13414;44.534;18.700;2023-04-25T03:50:53;4.28;;;3.17;;
25511;SDS011;13414;44.534;18.700;2023-04-25T03:53:23;4.72;;;3.20;;
25511;SDS011;13414;44.534;18.700;2023-04-25T03:56:16;6.55;;;3.20;;
25511;SDS011;13414;44.534;18.700;2023-04-25T03:58:45;5.55;;;2.92;;
25511;SDS011;13414;44.534;18.700;2023-04-25T04:01:17;4.80;;;2.90;;
25511;SDS011;13414;44.534;18.700;2023-04-25T04:03:44;8.57;;;2.92;;
25511;SDS011;13414;44.534;18.700;2023-04-25T04:06:12;3.50;;;2.65;;
25511;SDS011;13414;44.534;18.700;2023-04-25T04:08:45;4.70;;;2.97;;
25511;SDS011;13414;44.534;18.700;2023-04-25T04:11:12;6.45;;;3.40;;
25511;SDS011;13414;44.534;18.700;2023-04-25T04:13:40;5.63;;;3.78;;
25511;SDS011;13414;44.534;18.700;2023-04-25T04:16:08;10.43;;;4.38;;
25511;SDS011;13414;44.534;18.700;2023-04-25T04:18:36;8.07;;;4.10;;
25511;SDS011;13414;44.534;18.700;2023-04-25T04:24:10;8.05;;;3.85;;
25511;SDS011;13414;44.534;18.700;2023-04-25T04:27:06;5.20;;;3.30;;
25511;SDS011;13414;44.534;18.700;2023-04-25T04:29:46;6.35;;;4.28;;
25511;SDS011;13414;44.534;18.700;2023-04-25T04:32:24;7.32;;;3.50;;
25511;SDS011;13414;44.534;18.700;2023-04-25T04:34:53;13.45;;;9.25;;
25511;SDS011;13414;44.534;18.700;2023-04-25T04:37:22;6.15;;;4.40;;
25511;SDS011;13414;44.534;18.700;2023-04-25T04:39:51;8.13;;;4.60;;
25511;SDS011;13414;44.534;18.700;2023-04-25T04:42:26;6.50;;;3.30;;
25511;SDS011;13414;44.534;18.700;2023-04-25T04:45:20;7.50;;;3.90;;
25511;SDS011;13414;44.534;18.700;2023-04-25T04:51:03;9.40;;;4.28;;
25511;SDS011;13414;44.534;18.700;2023-04-25T04:53:49;6.90;;;4.32;;
25511;SDS011;13414;44.534;18.700;2023-04-25T04:56:37;6.53;;;4.38;;
25511;SDS011;13414;44.534;18.700;2023-04-25T04:59:16;7.10;;;3.47;;
25511;SDS011;13414;44.534;18.700;2023-04-25T05:02:09;6.47;;;3.80;;
25511;SDS011;13414;44.534;18.700;2023-04-25T05:04:59;8.00;;;4.53;;
25511;SDS011;13414;44.534;18.700;2023-04-25T05:07:45;8.07;;;4.88;;
25511;SDS011;13414;44.534;18.700;2023-04-25T05:10:30;10.65;;;5.72;;
25511;SDS011;13414;44.534;18.700;2023-04-25T05:13:19;12.95;;;7.07;;
25511;SDS011;13414;44.534;18.700;2023-04-25T05:16:03;18.00;;;9.93;;
25511;SDS011;13414;44.534;18.700;2023-04-25T05:18:39;16.33;;;9.90;;
25511;SDS011;13414;44.534;18.700;2023-04-25T05:21:20;15.80;;;10.15;;
25511;SDS011;13414;44.534;18.700;2023-04-25T05:24:08;21.90;;;14.43;;
25511;SDS011;13414;44.534;18.700;2023-04-25T05:27:16;25.15;;;15.23;;
25511;SDS011;13414;44.534;18.700;2023-04-25T05:30:20;25.83;;;15.93;;
25511;SDS011;13414;44.534;18.700;2023-04-25T05:32:58;29.10;;;14.68;;
25511;SDS011;13414;44.534;18.700;2023-04-25T05:35:26;18.30;;;12.15;;
25511;SDS011;13414;44.534;18.700;2023-04-25T05:37:54;19.80;;;11.40;;
25511;SDS011;13414;44.534;18.700;2023-04-25T05:40:34;18.67;;;10.30;;
25511;SDS011;13414;44.534;18.700;2023-04-25T05:43:17;15.55;;;9.23;;
25511;SDS011;13414;44.534;18.700;2023-04-25T05:46:01;16.27;;;8.15;;
25511;SDS011;13414;44.534;18.700;2023-04-25T05:48:41;13.10;;;7.00;;
25511;SDS011;13414;44.534;18.700;2023-04-25T05:51:20;13.43;;;7.15;;
25511;SDS011;13414;44.534;18.700;2023-04-25T05:54:17;10.45;;;7.15;;
25511;SDS011;13414;44.534;18.700;2023-04-25T05:56:44;13.60;;;8.23;;
25511;SDS011;13414;44.534;18.700;2023-04-25T05:59:12;13.70;;;8.80;;
25511;SDS011;13414;44.534;18.700;2023-04-25T06:01:41;10.70;;;6.90;;
25511;SDS011;13414;44.534;18.700;2023-04-25T06:04:09;9.55;;;5.20;;
25511;SDS011;13414;44.534;18.700;2023-04-25T06:06:37;9.27;;;5.63;;
25511;SDS011;13414;44.534;18.700;2023-04-25T06:09:05;13.25;;;7.25;;
25511;SDS011;13414;44.534;18.700;2023-04-25T06:11:32;10.82;;;5.65;;
25511;SDS011;13414;44.534;18.700;2023-04-25T06:14:00;10.68;;;6.97;;
25511;SDS011;13414;44.534;18.700;2023-04-25T06:16:29;11.15;;;6.97;;
25511;SDS011;13414;44.534;18.700;2023-04-25T06:18:58;9.45;;;5.97;;
25511;SDS011;13414;44.534;18.700;2023-04-25T06:21:26;13.00;;;5.38;;
25511;SDS011;13414;44.534;18.700;2023-04-25T06:23:54;9.07;;;5.47;;
25511;SDS011;13414;44.534;18.700;2023-04-25T06:26:22;8.55;;;5.10;;
25511;SDS011;13414;44.534;18.700;2023-04-25T06:28:51;9.18;;;4.90;;
25511;SDS011;13414;44.534;18.700;2023-04-25T06:31:18;8.65;;;4.97;;
25511;SDS011;13414;44.534;18.700;2023-04-25T06:33:48;8.82;;;5.65;;
25511;SDS011;13414;44.534;18.700;2023-04-25T06:36:21;12.10;;;6.15;;
25511;SDS011;13414;44.534;18.700;2023-04-25T06:38:53;14.30;;;7.40;;
25511;SDS011;13414;44.534;18.700;2023-04-25T06:41:20;13.30;;;7.03;;
25511;SDS011;13414;44.534;18.700;2023-04-25T06:43:48;13.27;;;8.02;;
25511;SDS011;13414;44.534;18.700;2023-04-25T06:46:24;14.10;;;8.63;;
25511;SDS011;13414;44.534;18.700;2023-04-25T06:48:53;19.92;;;12.30;;
25511;SDS011;13414;44.534;18.700;2023-04-25T06:51:21;17.20;;;12.57;;
25511;SDS011;13414;44.534;18.700;2023-04-25T06:53:50;19.88;;;12.82;;
25511;SDS011;13414;44.534;18.700;2023-04-25T06:56:26;17.83;;;12.70;;
25511;SDS011;13414;44.534;18.700;2023-04-25T06:59:10;21.83;;;16.20;;
25511;SDS011;13414;44.534;18.700;2023-04-25T07:01:39;25.23;;;20.88;;
25511;SDS011;13414;44.534;18.700;2023-04-25T07:04:16;24.25;;;20.38;;
25511;SDS011;13414;44.534;18.700;2023-04-25T07:06:50;27.77;;;17.08;;
25511;SDS011;13414;44.534;18.700;2023-04-25T07:09:26;28.45;;;17.70;;
25511;SDS011;13414;44.534;18.700;2023-04-25T07:11:54;27.92;;;20.33;;
25511;SDS011;13414;44.534;18.700;2023-04-25T07:14:23;27.33;;;21.10;;
25511;SDS011;13414;44.534;18.700;2023-04-25T07:16:52;29.60;;;20.98;;
25511;SDS011;13414;44.534;18.700;2023-04-25T07:19:21;33.50;;;24.75;;
25511;SDS011;13414;44.534;18.700;2023-04-25T07:21:53;34.20;;;23.02;;
25511;SDS011;13414;44.534;18.700;2023-04-25T07:24:24;28.27;;;20.55;;
25511;SDS011;13414;44.534;18.700;2023-04-25T07:26:54;30.67;;;21.27;;
25511;SDS011;13414;44.534;18.700;2023-04-25T07:29:46;26.40;;;17.55;;
25511;SDS011;13414;44.534;18.700;2023-04-25T07:32:14;27.23;;;19.52;;
25511;SDS011;13414;44.534;18.700;2023-04-25T07:34:42;27.83;;;19.30;;
25511;SDS011;13414;44.534;18.700;2023-04-25T07:37:10;26.98;;;17.48;;
25511;SDS011;13414;44.534;18.700;2023-04-25T07:39:53;23.75;;;15.70;;
25511;SDS011;13414;44.534;18.700;2023-04-25T07:42:21;21.50;;;14.13;;
25511;SDS011;13414;44.534;18.700;2023-04-25T07:44:48;24.45;;;16.65;;
25511;SDS011;13414;44.534;18.700;2023-04-25T07:47:17;23.05;;;17.00;;
25511;SDS011;13414;44.534;18.700;2023-04-25T07:49:46;25.13;;;18.42;;
25511;SDS011;13414;44.534;18.700;2023-04-25T07:52:16;26.58;;;18.80;;
25511;SDS011;13414;44.534;18.700;2023-04-25T07:54:50;25.65;;;17.85;;
25511;SDS011;13414;44.534;18.700;2023-04-25T07:57:26;23.70;;;17.70;;
25511;SDS011;13414;44.534;18.700;2023-04-25T07:59:55;27.52;;;20.30;;
25511;SDS011;13414;44.534;18.700;2023-04-25T08:02:25;30.13;;;20.50;;
25511;SDS011;13414;44.534;18.700;2023-04-25T08:04:54;25.50;;;18.35;;
25511;SDS011;13414;44.534;18.700;2023-04-25T08:07:23;24.08;;;17.67;;
25511;SDS011;13414;44.534;18.700;2023-04-25T08:09:54;26.23;;;18.00;;
25511;SDS011;13414;44.534;18.700;2023-04-25T08:12:26;28.23;;;19.42;;
25511;SDS011;13414;44.534;18.700;2023-04-25T08:14:56;27.27;;;22.08;;
25511;SDS011;13414;44.534;18.700;2023-04-25T08:17:29;30.67;;;23.90;;
25511;SDS011;13414;44.534;18.700;2023-04-25T08:19:57;31.23;;;22.70;;
25511;SDS011;13414;44.534;18.700;2023-04-25T08:22:30;26.40;;;21.30;;
25511;SDS011;13414;44.534;18.700;2023-04-25T08:25:13;27.67;;;21.60;;
25511;SDS011;13414;44.534;18.700;2023-04-25T08:27:41;25.70;;;20.92;;
25511;SDS011;13414;44.534;18.700;2023-04-25T08:30:10;23.50;;;16.23;;
25511;SDS011;13414;44.534;18.700;2023-04-25T08:32:42;23.63;;;16.63;;
25511;SDS011;13414;44.534;18.700;2023-04-25T08:35:28;24.00;;;16.15;;
25511;SDS011;13414;44.534;18.700;2023-04-25T08:37:57;24.42;;;15.40;;
25511;SDS011;13414;44.534;18.700;2023-04-25T08:40:26;22.42;;;15.15;;
25511;SDS011;13414;44.534;18.700;2023-04-25T08:43:05;23.10;;;16.83;;
25511;SDS011;13414;44.534;18.700;2023-04-25T08:45:38;21.55;;;13.43;;
25511;SDS011;13414;44.534;18.700;2023-04-25T08:48:10;20.23;;;13.05;;
25511;SDS011;13414;44.534;18.700;2023-04-25T08:50:38;23.35;;;12.80;;
25511;SDS011;13414;44.534;18.700;2023-04-25T08:53:08;19.23;;;12.27;;
25511;SDS011;13414;44.534;18.700;2023-04-25T08:55:45;18.85;;;10.88;;
25511;SDS011;13414;44.534;18.700;2023-04-25T08:58:13;13.90;;;10.43;;
25511;SDS011;13414;44.534;18.700;2023-04-25T09:00:41;15.80;;;10.23;;
25511;SDS011;13414;44.534;18.700;2023-04-25T09:03:09;15.65;;;10.20;;
25511;SDS011;13414;44.534;18.700;2023-04-25T09:05:38;12.35;;;8.57;;
25511;SDS011;13414;44.534;18.700;2023-04-25T09:08:09;13.13;;;8.70;;
25511;SDS011;13414;44.534;18.700;2023-04-25T09:10:37;10.73;;;8.13;;
25511;SDS011;13414;44.534;18.700;2023-04-25T09:13:05;9.80;;;7.32;;
25511;SDS011;13414;44.534;18.700;2023-04-25T09:15:56;11.65;;;7.45;;
25511;SDS011;13414;44.534;18.700;2023-04-25T09:18:42;11.98;;;8.07;;
25511;SDS011;13414;44.534;18.700;2023-04-25T09:21:11;15.85;;;8.52;;
25511;SDS011;13414;44.534;18.700;2023-04-25T09:23:40;9.25;;;5.95;;
25511;SDS011;13414;44.534;18.700;2023-04-25T09:26:10;11.70;;;7.55;;
25511;SDS011;13414;44.534;18.700;2023-04-25T09:28:43;8.63;;;6.57;;
25511;SDS011;13414;44.534;18.700;2023-04-25T09:31:20;8.38;;;4.78;;
25511;SDS011;13414;44.534;18.700;2023-04-25T09:33:50;8.38;;;5.22;;
25511;SDS011;13414;44.534;18.700;2023-04-25T09:36:29;12.27;;;7.47;;
25511;SDS011;13414;44.534;18.700;2023-04-25T09:39:13;8.55;;;6.00;;
25511;SDS011;13414;44.534;18.700;2023-04-25T09:41:47;7.90;;;3.90;;
25511;SDS011;13414;44.534;18.700;2023-04-25T09:44:22;8.30;;;3.63;;
25511;SDS011;13414;44.534;18.700;2023-04-25T09:46:52;7.13;;;4.35;;
25511;SDS011;13414;44.534;18.700;2023-04-25T09:49:22;5.93;;;4.13;;
25511;SDS011;13414;44.534;18.700;2023-04-25T09:52:04;8.13;;;4.95;;
25511;SDS011;13414;44.534;18.700;2023-04-25T09:54:43;5.60;;;3.90;;
25511;SDS011;13414;44.534;18.700;2023-04-25T09:57:15;8.38;;;5.63;;
25511;SDS011;13414;44.534;18.700;2023-04-25T09:59:45;6.35;;;4.35;;
25511;SDS011;13414;44.534;18.700;2023-04-25T10:02:13;8.48;;;4.97;;
25511;SDS011;13414;44.534;18.700;2023-04-25T10:04:47;7.05;;;4.38;;
25511;SDS011;13414;44.534;18.700;2023-04-25T10:07:29;5.00;;;3.10;;
25511;SDS011;13414;44.534;18.700;2023-04-25T10:10:01;5.85;;;3.83;;
25511;SDS011;13414;44.534;18.700;2023-04-25T10:12:30;7.07;;;4.13;;
25511;SDS011;13414;44.534;18.700;2023-04-25T10:14:59;9.15;;;4.38;;
25511;SDS011;13414;44.534;18.700;2023-04-25T10:17:27;7.85;;;3.92;;
25511;SDS011;13414;44.534;18.700;2023-04-25T10:19:55;8.27;;;4.40;;
25511;SDS011;13414;44.534;18.700;2023-04-25T10:22:25;10.52;;;4.32;;
25511;SDS011;13414;44.534;18.700;2023-04-25T10:24:56;6.63;;;3.55;;
25511;SDS011;13414;44.534;18.700;2023-04-25T10:27:27;8.18;;;3.33;;
25511;SDS011;13414;44.534;18.700;2023-04-25T10:30:00;9.85;;;4.78;;
25511;SDS011;13414;44.534;18.700;2023-04-25T10:32:30;6.55;;;3.20;;
25511;SDS011;13414;44.534;18.700;2023-04-25T10:35:04;3.88;;;2.20;;
25511;SDS011;13414;44.534;18.700;2023-04-25T10:37:37;9.15;;;5.72;;
25511;SDS011;13414;44.534;18.700;2023-04-25T10:40:08;9.77;;;5.32;;
25511;SDS011;13414;44.534;18.700;2023-04-25T10:42:37;7.05;;;3.60;;
25511;SDS011;13414;44.534;18.700;2023-04-25T10:45:08;4.65;;;2.17;;
25511;SDS011;13414;44.534;18.700;2023-04-25T10:47:36;6.82;;;2.38;;
25511;SDS011;13414;44.534;18.700;2023-04-25T10:50:10;6.13;;;3.75;;
25511;SDS011;13414;44.534;18.700;2023-04-25T10:52:38;8.80;;;5.00;;
25511;SDS011;13414;44.534;18.700;2023-04-25T10:55:07;5.53;;;2.40;;
25511;SDS011;13414;44.534;18.700;2023-04-25T10:57:38;3.95;;;2.08;;
25511;SDS011;13414;44.534;18.700;2023-04-25T11:00:08;5.05;;;2.35;;
25511;SDS011;13414;44.534;18.700;2023-04-25T11:02:41;3.10;;;2.00;;
25511;SDS011;13414;44.534;18.700;2023-04-25T11:05:10;5.30;;;2.90;;
25511;SDS011;13414;44.534;18.700;2023-04-25T11:07:49;3.88;;;2.08;;
25511;SDS011;13414;44.534;18.700;2023-04-25T11:10:18;11.63;;;3.67;;
25511;SDS011;13414;44.534;18.700;2023-04-25T11:12:47;6.07;;;2.95;;
25511;SDS011;13414;44.534;18.700;2023-04-25T11:15:15;6.63;;;3.30;;
25511;SDS011;13414;44.534;18.700;2023-04-25T11:17:42;6.85;;;4.47;;
25511;SDS011;13414;44.534;18.700;2023-04-25T11:20:11;3.88;;;2.30;;
25511;SDS011;13414;44.534;18.700;2023-04-25T11:22:41;2.88;;;1.80;;
25511;SDS011;13414;44.534;18.700;2023-04-25T11:25:11;5.32;;;2.53;;
25511;SDS011;13414;44.534;18.700;2023-04-25T11:27:50;8.65;;;2.50;;
25511;SDS011;13414;44.534;18.700;2023-04-25T11:30:18;6.10;;;2.72;;
25511;SDS011;13414;44.534;18.700;2023-04-25T11:32:47;5.40;;;2.17;;
25511;SDS011;13414;44.534;18.700;2023-04-25T11:35:17;12.38;;;8.18;;
25511;SDS011;13414;44.534;18.700;2023-04-25T11:37:45;3.70;;;2.53;;
25511;SDS011;13414;44.534;18.700;2023-04-25T11:40:12;4.07;;;2.53;;
25511;SDS011;13414;44.534;18.700;2023-04-25T11:42:43;8.50;;;4.50;;
25511;SDS011;13414;44.534;18.700;2023-04-25T11:45:16;4.32;;;2.08;;
25511;SDS011;13414;44.534;18.700;2023-04-25T11:47:44;4.60;;;2.30;;
25511;SDS011;13414;44.534;18.700;2023-04-25T11:50:12;7.38;;;5.68;;
25511;SDS011;13414;44.534;18.700;2023-04-25T11:52:41;6.53;;;2.80;;
25511;SDS011;13414;44.534;18.700;2023-04-25T11:55:10;5.82;;;3.22;;
25511;SDS011;13414;44.534;18.700;2023-04-25T11:57:40;4.57;;;2.20;;
25511;SDS011;13414;44.534;18.700;2023-04-25T12:00:09;3.03;;;1.73;;
25511;SDS011;13414;44.534;18.700;2023-04-25T12:02:41;5.05;;;2.78;;
25511;SDS011;13414;44.534;18.700;2023-04-25T12:05:10;7.90;;;2.80;;
25511;SDS011;13414;44.534;18.700;2023-04-25T12:07:39;8.63;;;5.47;;
25511;SDS011;13414;44.534;18.700;2023-04-25T12:10:08;8.18;;;3.10;;
25511;SDS011;13414;44.534;18.700;2023-04-25T12:12:38;8.02;;;2.90;;
25511;SDS011;13414;44.534;18.700;2023-04-25T12:15:12;3.95;;;2.30;;
25511;SDS011;13414;44.534;18.700;2023-04-25T12:17:45;4.72;;;2.40;;
25511;SDS011;13414;44.534;18.700;2023-04-25T12:20:15;5.05;;;2.40;;
25511;SDS011;13414;44.534;18.700;2023-04-25T12:22:45;5.30;;;3.20;;
25511;SDS011;13414;44.534;18.700;2023-04-25T12:25:17;8.15;;;4.70;;
25511;SDS011;13414;44.534;18.700;2023-04-25T12:28:09;6.47;;;3.05;;
25511;SDS011;13414;44.534;18.700;2023-04-25T12:30:55;8.00;;;2.28;;
25511;SDS011;13414;44.534;18.700;2023-04-25T12:33:26;4.82;;;2.10;;
25511;SDS011;13414;44.534;18.700;2023-04-25T12:35:54;6.75;;;3.20;;
25511;SDS011;13414;44.534;18.700;2023-04-25T12:38:26;6.20;;;2.67;;
25511;SDS011;13414;44.534;18.700;2023-04-25T12:40:54;7.22;;;3.40;;
25511;SDS011;13414;44.534;18.700;2023-04-25T12:43:22;6.78;;;3.88;;
25511;SDS011;13414;44.534;18.700;2023-04-25T12:45:50;6.05;;;2.92;;
25511;SDS011;13414;44.534;18.700;2023-04-25T12:48:18;6.82;;;3.30;;
25511;SDS011;13414;44.534;18.700;2023-04-25T12:50:47;6.25;;;3.05;;
25511;SDS011;13414;44.534;18.700;2023-04-25T12:53:17;7.05;;;4.28;;
25511;SDS011;13414;44.534;18.700;2023-04-25T12:55:46;5.85;;;3.90;;
25511;SDS011;13414;44.534;18.700;2023-04-25T12:58:14;8.82;;;5.18;;
25511;SDS011;13414;44.534;18.700;2023-04-25T13:00:42;8.90;;;4.75;;
25511;SDS011;13414;44.534;18.700;2023-04-25T13:03:10;5.60;;;3.92;;
25511;SDS011;13414;44.534;18.700;2023-04-25T13:05:38;7.30;;;4.38;;
25511;SDS011;13414;44.534;18.700;2023-04-25T13:08:07;6.75;;;4.50;;
25511;SDS011;13414;44.534;18.700;2023-04-25T13:10:35;7.68;;;3.85;;
25511;SDS011;13414;44.534;18.700;2023-04-25T13:13:04;5.82;;;3.20;;
25511;SDS011;13414;44.534;18.700;2023-04-25T13:15:31;6.63;;;2.67;;
25511;SDS011;13414;44.534;18.700;2023-04-25T13:17:59;7.05;;;4.43;;
25511;SDS011;13414;44.534;18.700;2023-04-25T13:20:26;11.63;;;6.55;;
25511;SDS011;13414;44.534;18.700;2023-04-25T13:22:54;9.05;;;4.18;;
25511;SDS011;13414;44.534;18.700;2023-04-25T13:25:23;6.35;;;3.38;;
25511;SDS011;13414;44.534;18.700;2023-04-25T13:27:51;7.88;;;4.25;;
25511;SDS011;13414;44.534;18.700;2023-04-25T13:30:21;5.45;;;3.35;;
25511;SDS011;13414;44.534;18.700;2023-04-25T13:32:49;7.55;;;4.97;;
25511;SDS011;13414;44.534;18.700;2023-04-25T13:35:17;8.85;;;3.20;;
25511;SDS011;13414;44.534;18.700;2023-04-25T13:37:45;5.38;;;3.20;;
25511;SDS011;13414;44.534;18.700;2023-04-25T13:40:12;6.28;;;2.80;;
25511;SDS011;13414;44.534;18.700;2023-04-25T13:42:42;21.80;;;14.43;;
25511;SDS011;13414;44.534;18.700;2023-04-25T13:45:10;4.95;;;3.13;;
25511;SDS011;13414;44.534;18.700;2023-04-25T13:47:38;10.55;;;3.58;;
25511;SDS011;13414;44.534;18.700;2023-04-25T13:50:06;7.90;;;2.75;;
25511;SDS011;13414;44.534;18.700;2023-04-25T13:52:35;7.53;;;2.97;;
25511;SDS011;13414;44.534;18.700;2023-04-25T13:55:02;7.07;;;3.05;;
25511;SDS011;13414;44.534;18.700;2023-04-25T13:57:32;6.97;;;2.28;;
25511;SDS011;13414;44.534;18.700;2023-04-25T14:00:02;4.53;;;2.55;;
25511;SDS011;13414;44.534;18.700;2023-04-25T14:02:34;6.18;;;2.45;;
25511;SDS011;13414;44.534;18.700;2023-04-25T14:05:01;6.40;;;2.40;;
25511;SDS011;13414;44.534;18.700;2023-04-25T14:07:29;4.13;;;2.40;;
25511;SDS011;13414;44.534;18.700;2023-04-25T14:09:57;6.90;;;3.15;;
25511;SDS011;13414;44.534;18.700;2023-04-25T14:12:24;6.30;;;2.50;;
25511;SDS011;13414;44.534;18.700;2023-04-25T14:14:52;4.80;;;2.90;;
25511;SDS011;13414;44.534;18.700;2023-04-25T14:17:21;12.40;;;5.78;;
25511;SDS011;13414;44.534;18.700;2023-04-25T14:19:49;5.53;;;2.97;;
25511;SDS011;13414;44.534;18.700;2023-04-25T14:22:22;7.68;;;2.60;;
25511;SDS011;13414;44.534;18.700;2023-04-25T14:24:51;11.40;;;3.75;;
25511;SDS011;13414;44.534;18.700;2023-04-25T14:27:18;6.50;;;3.50;;
25511;SDS011;13414;44.534;18.700;2023-04-25T14:29:46;4.47;;;2.65;;
25511;SDS011;13414;44.534;18.700;2023-04-25T14:32:13;5.88;;;2.95;;
25511;SDS011;13414;44.534;18.700;2023-04-25T14:34:43;6.70;;;3.00;;
25511;SDS011;13414;44.534;18.700;2023-04-25T14:37:11;6.03;;;2.30;;
25511;SDS011;13414;44.534;18.700;2023-04-25T14:39:38;6.22;;;3.88;;
25511;SDS011;13414;44.534;18.700;2023-04-25T14:42:05;4.07;;;2.28;;
25511;SDS011;13414;44.534;18.700;2023-04-25T14:44:33;5.05;;;1.90;;
25511;SDS011;13414;44.534;18.700;2023-04-25T14:47:00;3.97;;;2.38;;
25511;SDS011;13414;44.534;18.700;2023-04-25T14:49:28;4.40;;;2.47;;
25511;SDS011;13414;44.534;18.700;2023-04-25T14:51:57;4.28;;;2.28;;
25511;SDS011;13414;44.534;18.700;2023-04-25T14:54:24;4.35;;;1.75;;
25511;SDS011;13414;44.534;18.700;2023-04-25T14:56:51;5.03;;;2.22;;